• Join FlightAware (Why Join?)
  • Login
  • US Flag 
 
07:10AM EST


 

Airport Tracker/Info


-or-


 

Live Flight TrackerFlight Track Log ✈ N1250V ✈ 21-Dec-2013 ✈ KAPF - KLUK

Flight Track Log - Related Links

Times and Time Zones

All times are in EST time to prevent confusion due to time zone crossing. See the N1250V flight status page for this flight to view local times or setup timezone preferences in your user account.

Time Position Orientation Groundspeed Altitude Reporting Facility
EST Latitude Longitude Course Direction KTS MPH feet Rate Location/Type
02:39PM 26.1111 -81.6967 37° Northeast 177 204 4,400  Level Miami Center
02:40PM 26.1475 -81.6658 37° Northeast 196 226 6,600 2,040 Climbing Miami Center
02:41PM 26.2128 -81.6475 14° North 219 252 8,500 1,680 Climbing Miami Center
02:42PM 26.2783 -81.6225 19° North 236 272 10,000 1,860 Climbing Miami Center
02:43PM 26.3361 -81.5808 33° Northeast 242 278 12,300 2,280 Climbing Miami Center
02:44PM 26.3950 -81.5692 10° North 231 266 14,600 1,980 Climbing Miami Center
02:45PM 26.4594 -81.5742 356° North 224 258 16,300 1,500 Climbing Miami Center
02:46PM 26.5258 -81.5928 346° North 231 266 17,700 840 Climbing Miami Center
02:47PM 26.6042 -81.6169 345° North 265 305 18,000 300 Climbing Miami Center
02:48PM 26.6972 -81.6439 345° North 306 352 18,300 780 Climbing Miami Center
02:49PM 26.7839 -81.6756 342° North 318 366 19,600 1,200 Climbing Miami Center
02:50PM 26.8689 -81.7000 346° North 318 366 20,700 1,200 Climbing Miami Center
02:51PM 26.9494 -81.7242 345° North 313 360 22,000 1,140 Climbing Miami Center
02:52PM 27.0239 -81.7436 347° North 308 354 23,000 1,080 Climbing Miami Center
02:53PM 27.1147 -81.7756 343° North 308 354 24,200 1,140 Climbing Miami Center
02:54PM 27.1972 -81.8022 344° North 308 354 25,300 1,080 Climbing Miami Center
02:55PM 27.2797 -81.8314 343° North 313 360 26,400 1,020 Climbing Miami Center
02:56PM 27.3539 -81.8581 342° North 308 354 27,400 1,020 Climbing Miami Center
02:57PM 27.4364 -81.8872 343° North 303 349 28,500 1,020 Climbing Miami Center
02:58PM 27.5169 -81.9119 345° North 303 349 29,500 1,020 Climbing Miami Center
03:00PM 27.6753 -81.9742 341° North 312 359 31,500 840 Climbing Jacksonville Center
03:01PM 27.7692 -81.9992 347° North 307 353 32,000 600 Climbing Jacksonville Center
03:02PM 27.8528 -82.0100 353° North 314 361 32,700 600 Climbing Jacksonville Center
03:03PM 27.9425 -82.0117 359° North 314 361 33,300 480 Climbing Jacksonville Center
03:04PM 28.0242 -82.0461 340° North 314 361 33,700 300 Climbing Jacksonville Center
03:05PM 28.0975 -82.1092 323° Northwest 309 356 34,000 120 Climbing Jacksonville Center
03:06PM 28.1833 -82.1578 333° Northwest 324 373 34,000  Level Jacksonville Center
03:07PM 28.2794 -82.1925 342° North 346 398 34,000  Level Jacksonville Center
03:08PM 28.3797 -82.2272 343° North 359 413 34,000  Level Jacksonville Center
03:09PM 28.4803 -82.2619 343° North 370 426 34,000  Level Jacksonville Center
03:10PM 28.5806 -82.2992 342° North 370 426 34,000  Level Jacksonville Center
03:11PM 28.6808 -82.3364 342° North 375 432 34,000  Level Jacksonville Center
03:12PM 28.7686 -82.3667 343° North 370 426 34,000  Level Jacksonville Center
03:13PM 28.8689 -82.4019 343° North 370 426 34,000  Level Jacksonville Center
03:14PM 28.9692 -82.4392 342° North 375 432 34,000  Level Jacksonville Center
03:15PM 29.0717 -82.4769 342° North 375 432 34,000  Level Jacksonville Center
03:16PM 29.1742 -82.5144 342° North 380 437 34,000  Level Jacksonville Center
03:17PM 29.2744 -82.5497 343° North 380 437 34,000  Level Jacksonville Center
03:18PM 29.3747 -82.5828 344° North 380 437 34,000  Level Jacksonville Center
03:19PM 29.4667 -82.6397 332° Northwest 380 437 34,000  Level Jacksonville Center
03:20PM 29.5692 -82.7086 330° Northwest 386 444 34,000  Level Jacksonville Center
03:21PM 29.6611 -82.7658 332° Northwest 376 433 34,000  Level Jacksonville Center
03:22PM 29.7508 -82.8256 330° Northwest 382 440 34,000  Level Jacksonville Center
03:23PM 29.8428 -82.8831 332° Northwest 382 440 34,000  Level Jacksonville Center
03:24PM 29.9367 -82.9406 332° Northwest 382 440 34,000  Level Jacksonville Center
03:25PM 30.0306 -82.9958 333° Northwest 382 440 34,000  Level Jacksonville Center
03:26PM 30.1222 -83.0533 332° Northwest 377 434 34,000  Level Jacksonville Center
03:27PM 30.2142 -83.1114 331° Northwest 372 428 34,000  Level Jacksonville Center
03:28PM 30.3058 -83.1692 331° Northwest 372 428 34,000  Level Jacksonville Center
03:29PM 30.3975 -83.2272 331° Northwest 372 428 34,000  Level Jacksonville Center
03:30PM 30.4894 -83.2856 331° Northwest 372 428 34,000  Level Jacksonville Center
03:31PM 30.5789 -83.3439 331° Northwest 372 428 34,000  Level Jacksonville Center
03:32PM 30.6683 -83.4022 331° Northwest 372 428 34,000  Level Jacksonville Center
03:33PM 30.7622 -83.4608 332° Northwest 372 428 34,000  Level Jacksonville Center
03:34PM 30.8414 -83.5119 331° Northwest 372 428 34,000  Level Jacksonville Center
03:35PM 30.9328 -83.5708 331° Northwest 367 422 34,000  Level Jacksonville Center
03:36PM 31.0222 -83.6294 331° Northwest 367 422 34,000  Level Jacksonville Center
03:37PM 31.1139 -83.6908 330° Northwest 372 428 34,000  Level Jacksonville Center
03:38PM 31.2033 -83.7500 331° Northwest 372 428 34,000  Level Jacksonville Center
03:40PM 31.3478 -83.8419 331° Northwest 363 418 34,000  Level Atlanta Center
03:41PM 31.4461 -83.9075 330° Northwest 363 418 34,000  Level Atlanta Center
03:42PM 31.5378 -83.9608 334° Northwest 368 423 34,000  Level Atlanta Center
03:43PM 31.6506 -83.9608 360° North 368 423 34,000  Level Atlanta Center
03:44PM 31.7611 -83.9606 360° North 386 444 34,000  Level Atlanta Center
03:45PM 31.8636 -83.9925 345° North 385 443 34,000  Level Atlanta Center
03:46PM 31.9594 -84.0436 336° Northwest 375 432 34,000  Level Atlanta Center
03:47PM 32.0617 -84.0781 344° North 375 432 34,000  Level Atlanta Center
03:48PM 32.1661 -84.1003 350° North 375 432 34,000  Level Atlanta Center
03:49PM 32.2706 -84.1247 349° North 375 432 34,000  Level Atlanta Center
03:50PM 32.3789 -84.1469 350° North 380 437 34,000  Level Atlanta Center
03:51PM 32.4875 -84.1569 356° North 386 444 34,000  Level Atlanta Center
03:52PM 32.5731 -84.1622 357° North 386 444 34,000  Level Atlanta Center
03:53PM 32.6942 -84.1747 355° North 386 444 34,000  Level Atlanta Center
03:54PM 32.8006 -84.1822 357° North 386 444 34,000  Level Atlanta Center
03:55PM 32.9111 -84.1947 355° North 386 444 34,000  Level Atlanta Center
03:56PM 33.0219 -84.2022 357° North 386 444 34,000  Level Atlanta Center
03:57PM 33.1303 -84.2125 355° North 386 444 34,000  Level Atlanta Center
03:58PM 33.2389 -84.2200 357° North 386 444 34,000  Level Atlanta Center
03:59PM 33.3475 -84.2303 355° North 386 444 34,000  Level Atlanta Center
04:00PM 33.4642 -84.2381 357° North 386 444 34,000  Level Atlanta Center
04:01PM 33.5750 -84.2483 356° North 386 444 34,000  Level Atlanta Center
04:02PM 33.6833 -84.2586 355° North 386 444 34,000  Level Atlanta Center
04:03PM 33.7942 -84.2664 357° North 386 444 34,000  Level Atlanta Center
04:04PM 33.9047 -84.2767 356° North 386 444 34,000  Level Atlanta Center
04:05PM 34.0131 -84.2844 357° North 391 450 34,000  Level Atlanta Center
04:06PM 34.1239 -84.2922 357° North 386 444 34,000  Level Atlanta Center
04:07PM 34.2386 -84.2625 12° North 405 466 34,000  Level Atlanta Center
04:08PM 34.3492 -84.2375 11° North 410 472 34,000  Level Atlanta Center
04:09PM 34.4619 -84.2125 10° North 410 472 34,000  Level Atlanta Center
04:10PM 34.5747 -84.1875 10° North 410 472 34,000  Level Atlanta Center
04:11PM 34.6811 -84.1675 North 405 466 34,000  Level Atlanta Center
04:12PM 34.7939 -84.1425 10° North 405 466 34,000  Level Atlanta Center
04:13PM 34.9067 -84.1172 10° North 410 472 34,000  Level Atlanta Center
04:14PM 35.0194 -84.0919 10° North 410 472 34,000  Level Atlanta Center
04:15PM 35.1319 -84.0667 10° North 410 472 34,000  Level Atlanta Center
04:16PM 35.2425 -84.0439 10° North 410 472 34,000  Level Atlanta Center
04:17PM 35.3553 -84.0183 10° North 410 472 34,000  Level Atlanta Center
04:18PM 35.4658 -83.9928 11° North 410 472 34,000  Level Atlanta Center
04:19PM 35.5786 -83.9672 10° North 410 472 34,000  Level Atlanta Center
04:20PM 35.6889 -83.9442 10° North 410 472 34,000  Level Atlanta Center
04:21PM 35.7994 -83.9183 11° North 410 472 34,000  Level Atlanta Center
04:22PM 35.9142 -83.8925 10° North 410 472 34,000  Level Atlanta Center
04:23PM 36.0247 -83.8744 North 405 466 34,000  Level Atlanta Center
04:24PM 36.1375 -83.8536 North 405 466 34,000  Level Atlanta Center
04:25PM 36.2678 -83.8289 North 406 467 34,000  Level Indianapolis Center
04:26PM 36.3783 -83.8094 North 404 465 34,000  Level Indianapolis Center
04:27PM 36.4897 -83.7911 North 403 464 34,000  Level Indianapolis Center
04:28PM 36.5992 -83.7717 North 410 472 34,000  Level Indianapolis Center
04:29PM 36.7111 -83.7519 North 406 467 34,000 -360 Level Indianapolis Center
04:30PM 36.8242 -83.7328 North 410 472 33,300 -1,200 Descending Indianapolis Center
04:31PM 36.9642 -83.7081 North 431 496 31,600 -1,560 Descending Indianapolis Center
04:32PM 37.0867 -83.6861 North 441 507 30,200 -1,440 Descending Indianapolis Center
04:33PM 37.2072 -83.6639 North 438 504 28,700 -1,440 Descending Indianapolis Center
04:34PM 37.3225 -83.6425 North 421 484 27,300 -1,440 Descending Indianapolis Center
04:35PM 37.4367 -83.6225 North 414 476 25,800 -1,500 Descending Indianapolis Center
04:36PM 37.5492 -83.6019 North 409 471 24,300 -1,500 Descending Indianapolis Center
04:37PM 37.6594 -83.5892 North 400 460 22,800 -1,140 Descending Indianapolis Center
04:38PM 37.7600 -83.6258 344° North 379 436 22,000 -1,020 Descending Indianapolis Center
04:39PM 37.8617 -83.6606 345° North 377 434 20,800 -1,260 Descending Indianapolis Center
04:40PM 37.9719 -83.6994 344° North 354 407 19,500 -1,200 Descending Indianapolis Center
04:41PM 38.0647 -83.7319 345° North 347 399 18,400 -1,200 Descending Indianapolis Center
04:42PM 38.1586 -83.7639 345° North 348 400 17,100 -1,200 Descending Indianapolis Center
04:43PM 38.2517 -83.7961 345° North 346 398 16,000 -1,080 Descending Indianapolis Center
04:44PM 38.3456 -83.8294 344° North 348 400 14,900 -1,080 Descending Indianapolis Center
04:45PM 38.4383 -83.8625 344° North 346 398 13,800 -1,080 Descending Indianapolis Center
04:46PM 38.5317 -83.8944 345° North 346 398 12,700 -900 Descending Indianapolis Center
04:47PM 38.6219 -83.9292 343° North 340 391 12,000 -960 Descending Indianapolis Center
04:48PM 38.6853 -83.9947 321° Northwest 308 354 10,800 -1,260 Descending Indianapolis Center
04:49PM 38.7594 -84.0708 321° Northwest 288 331 9,500 -1,260 Descending Indianapolis Center
04:50PM 38.8189 -84.1267 324° Northwest 273 314 8,300 -1,320 Descending Indianapolis Center
04:51PM 38.8872 -84.1731 332° Northwest 275 316 6,800 -1,560 Descending Indianapolis Center
04:52PM 38.9506 -84.2161 332° Northwest 265 305 5,200 -1,620 Descending Indianapolis Center
04:53PM 39.0147 -84.2603 332° Northwest 262 302 3,500 -1,080 Descending Indianapolis Center
04:54PM 39.0733 -84.3000 332° Northwest 255 293 3,000 -300 Descending Indianapolis Center
04:55PM 39.1311 -84.3392 332° Northwest 253 291 2,900 -720 Descending Indianapolis Center
04:57PM 39.1333 -84.4000 273° West 95 109 1,000 -1,020 Descending Cincinnati TRACON
04:59PM 39.1000 -84.4167 322° Northwest  Level FlightAware Approximate
05:06PM 39.1033 -84.4186 322° Northwest  Level Estimated